sensor_id;sensor_type;location;lat;lon;timestamp;pressure;altitude;pressure_sealevel;temperature;humidity
19096;BME280;9680;52.520;13.332;2023-08-31T00:00:40;100252.94;;;17.38;72.27
19096;BME280;9680;52.520;13.332;2023-08-31T00:03:08;100258.28;;;17.36;72.34
19096;BME280;9680;52.520;13.332;2023-08-31T00:05:37;100262.59;;;17.37;72.26
19096;BME280;9680;52.520;13.332;2023-08-31T00:08:06;100262.72;;;17.36;72.27
19096;BME280;9680;52.520;13.332;2023-08-31T00:10:33;100259.38;;;17.34;72.55
19096;BME280;9680;52.520;13.332;2023-08-31T00:13:00;100256.97;;;17.30;72.32
19096;BME280;9680;52.520;13.332;2023-08-31T00:15:27;100252.66;;;17.29;72.78
19096;BME280;9680;52.520;13.332;2023-08-31T00:17:57;100265.91;;;17.28;72.74
19096;BME280;9680;52.520;13.332;2023-08-31T00:20:26;100262.69;;;17.24;72.94
19096;BME280;9680;52.520;13.332;2023-08-31T00:22:55;100264.56;;;17.22;72.89
19096;BME280;9680;52.520;13.332;2023-08-31T00:25:22;100251.53;;;17.21;73.00
19096;BME280;9680;52.520;13.332;2023-08-31T00:27:49;100255.84;;;17.22;73.38
19096;BME280;9680;52.520;13.332;2023-08-31T00:30:19;100246.16;;;17.22;73.17
19096;BME280;9680;52.520;13.332;2023-08-31T00:32:45;100244.47;;;17.21;73.05
19096;BME280;9680;52.520;13.332;2023-08-31T00:35:12;100242.69;;;17.22;73.18
19096;BME280;9680;52.520;13.332;2023-08-31T00:37:41;100244.38;;;17.23;73.19
19096;BME280;9680;52.520;13.332;2023-08-31T00:40:08;100249.72;;;17.21;73.14
19096;BME280;9680;52.520;13.332;2023-08-31T00:42:39;100264.69;;;17.21;73.29
19096;BME280;9680;52.520;13.332;2023-08-31T00:45:07;100257.84;;;17.18;73.74
19096;BME280;9680;52.520;13.332;2023-08-31T00:47:33;100259.25;;;17.11;73.76
19096;BME280;9680;52.520;13.332;2023-08-31T00:50:01;100258.88;;;17.04;73.83
19096;BME280;9680;52.520;13.332;2023-08-31T00:52:28;100258.38;;;16.99;74.32
19096;BME280;9680;52.520;13.332;2023-08-31T00:54:57;100251.63;;;16.95;74.37
19096;BME280;9680;52.520;13.332;2023-08-31T00:57:23;100244.69;;;16.94;74.75
19096;BME280;9680;52.520;13.332;2023-08-31T00:59:51;100257.84;;;16.94;74.97
19096;BME280;9680;52.520;13.332;2023-08-31T01:02:24;100265.84;;;16.92;75.03
19096;BME280;9680;52.520;13.332;2023-08-31T01:05:03;100272.16;;;16.89;75.21
19096;BME280;9680;52.520;13.332;2023-08-31T01:07:35;100267.09;;;16.86;75.52
19096;BME280;9680;52.520;13.332;2023-08-31T01:10:14;100266.50;;;16.83;76.01
19096;BME280;9680;52.520;13.332;2023-08-31T01:12:50;100280.09;;;16.77;76.29
19096;BME280;9680;52.520;13.332;2023-08-31T01:15:18;100274.84;;;16.77;76.75
19096;BME280;9680;52.520;13.332;2023-08-31T01:17:47;100272.31;;;16.75;77.07
19096;BME280;9680;52.520;13.332;2023-08-31T01:20:19;100276.84;;;16.73;77.34
19096;BME280;9680;52.520;13.332;2023-08-31T01:22:51;100282.22;;;16.71;77.79
19096;BME280;9680;52.520;13.332;2023-08-31T01:25:23;100278.84;;;16.69;77.74
19096;BME280;9680;52.520;13.332;2023-08-31T01:27:51;100286.63;;;16.71;78.02
19096;BME280;9680;52.520;13.332;2023-08-31T01:30:18;100288.75;;;16.66;78.30
19096;BME280;9680;52.520;13.332;2023-08-31T01:32:45;100291.16;;;16.56;77.99
19096;BME280;9680;52.520;13.332;2023-08-31T01:35:13;100285.72;;;16.46;78.27
19096;BME280;9680;52.520;13.332;2023-08-31T01:37:45;100295.50;;;16.44;78.42
19096;BME280;9680;52.520;13.332;2023-08-31T01:40:17;100293.31;;;16.38;78.17
19096;BME280;9680;52.520;13.332;2023-08-31T01:42:47;100301.50;;;16.33;78.33
19096;BME280;9680;52.520;13.332;2023-08-31T01:45:17;100298.56;;;16.25;nan
19096;BME280;9680;52.520;13.332;2023-08-31T01:47:45;100308.78;;;16.16;78.08
19096;BME280;9680;52.520;13.332;2023-08-31T01:50:12;100305.63;;;16.11;78.49
19096;BME280;9680;52.520;13.332;2023-08-31T01:52:39;100308.34;;;16.10;79.21
19096;BME280;9680;52.520;13.332;2023-08-31T01:55:06;100306.66;;;16.09;79.37
19096;BME280;9680;52.520;13.332;2023-08-31T01:57:33;100296.56;;;16.02;79.40
19096;BME280;9680;52.520;13.332;2023-08-31T02:00:14;100304.56;;;15.88;79.92
19096;BME280;9680;52.520;13.332;2023-08-31T02:02:42;100309.69;;;15.90;80.25
19096;BME280;9680;52.520;13.332;2023-08-31T02:05:09;100317.84;;;15.85;80.78
19096;BME280;9680;52.520;13.332;2023-08-31T02:07:36;100325.94;;;15.82;81.99
19096;BME280;9680;52.520;13.332;2023-08-31T02:10:03;100330.53;;;15.78;81.95
19096;BME280;9680;52.520;13.332;2023-08-31T02:12:31;100326.66;;;15.71;82.42
19096;BME280;9680;52.520;13.332;2023-08-31T02:14:58;100333.03;;;15.67;82.00
19096;BME280;9680;52.520;13.332;2023-08-31T02:17:26;100341.53;;;15.57;81.74
19096;BME280;9680;52.520;13.332;2023-08-31T02:19:53;100333.13;;;15.52;81.73
19096;BME280;9680;52.520;13.332;2023-08-31T02:22:21;100340.53;;;15.46;82.56
19096;BME280;9680;52.520;13.332;2023-08-31T02:24:47;100341.38;;;15.46;82.47
19096;BME280;9680;52.520;13.332;2023-08-31T02:27:14;100338.09;;;15.42;82.27
19096;BME280;9680;52.520;13.332;2023-08-31T02:29:41;100321.53;;;15.42;82.27
19096;BME280;9680;52.520;13.332;2023-08-31T02:32:07;100322.69;;;15.38;82.03
19096;BME280;9680;52.520;13.332;2023-08-31T02:34:36;100336.63;;;15.38;82.33
19096;BME280;9680;52.520;13.332;2023-08-31T02:37:05;100333.81;;;15.41;82.48
19096;BME280;9680;52.520;13.332;2023-08-31T02:39:32;100327.94;;;15.38;82.36
19096;BME280;9680;52.520;13.332;2023-08-31T02:41:58;100338.72;;;15.33;82.33
19096;BME280;9680;52.520;13.332;2023-08-31T02:44:25;100342.28;;;15.32;82.29
19096;BME280;9680;52.520;13.332;2023-08-31T02:46:52;100345.75;;;15.33;82.58
19096;BME280;9680;52.520;13.332;2023-08-31T02:49:19;100349.88;;;15.37;82.45
19096;BME280;9680;52.520;13.332;2023-08-31T02:51:47;100352.50;;;15.37;82.89
19096;BME280;9680;52.520;13.332;2023-08-31T02:54:15;100345.44;;;15.37;82.47
19096;BME280;9680;52.520;13.332;2023-08-31T02:56:41;100355.00;;;15.38;82.55
19096;BME280;9680;52.520;13.332;2023-08-31T02:59:08;100354.81;;;15.41;82.27
19096;BME280;9680;52.520;13.332;2023-08-31T03:01:35;100352.19;;;15.41;82.11
19096;BME280;9680;52.520;13.332;2023-08-31T03:04:02;100345.97;;;15.42;81.71
19096;BME280;9680;52.520;13.332;2023-08-31T03:06:31;100349.56;;;15.41;81.25
19096;BME280;9680;52.520;13.332;2023-08-31T03:08:59;100346.50;;;15.35;81.33
19096;BME280;9680;52.520;13.332;2023-08-31T03:11:27;100354.56;;;15.32;81.49
19096;BME280;9680;52.520;13.332;2023-08-31T03:13:54;100359.06;;;15.29;81.88
19096;BME280;9680;52.520;13.332;2023-08-31T03:16:21;100355.50;;;15.31;81.85
19096;BME280;9680;52.520;13.332;2023-08-31T03:18:47;100355.59;;;15.29;81.59
19096;BME280;9680;52.520;13.332;2023-08-31T03:21:14;100360.28;;;15.24;81.68
19096;BME280;9680;52.520;13.332;2023-08-31T03:23:41;100364.06;;;15.20;81.64
19096;BME280;9680;52.520;13.332;2023-08-31T03:26:09;100367.81;;;15.16;81.53
19096;BME280;9680;52.520;13.332;2023-08-31T03:28:36;100373.06;;;15.16;81.82
19096;BME280;9680;52.520;13.332;2023-08-31T03:31:03;100372.88;;;15.19;81.79
19096;BME280;9680;52.520;13.332;2023-08-31T03:33:30;100377.72;;;15.25;81.50
19096;BME280;9680;52.520;13.332;2023-08-31T03:36:00;100373.22;;;15.27;81.12
19096;BME280;9680;52.520;13.332;2023-08-31T03:38:30;100385.31;;;15.29;81.29
19096;BME280;9680;52.520;13.332;2023-08-31T03:40:59;100373.97;;;15.29;81.42
19096;BME280;9680;52.520;13.332;2023-08-31T03:43:27;100371.25;;;15.31;81.10
19096;BME280;9680;52.520;13.332;2023-08-31T03:45:54;100375.44;;;15.33;81.31
19096;BME280;9680;52.520;13.332;2023-08-31T03:48:22;100370.00;;;15.36;81.59
19096;BME280;9680;52.520;13.332;2023-08-31T03:50:49;100368.44;;;15.34;81.61
19096;BME280;9680;52.520;13.332;2023-08-31T03:53:17;100370.94;;;15.35;81.89
19096;BME280;9680;52.520;13.332;2023-08-31T03:55:43;100380.50;;;15.36;81.86
19096;BME280;9680;52.520;13.332;2023-08-31T03:58:14;100375.38;;;15.35;81.91
19096;BME280;9680;52.520;13.332;2023-08-31T04:00:49;100388.69;;;15.32;82.34
19096;BME280;9680;52.520;13.332;2023-08-31T04:03:17;100388.69;;;15.32;82.26
19096;BME280;9680;52.520;13.332;2023-08-31T04:05:44;100388.88;;;15.28;82.71
19096;BME280;9680;52.520;13.332;2023-08-31T04:08:11;100394.13;;;15.28;83.09
19096;BME280;9680;52.520;13.332;2023-08-31T04:10:38;100401.25;;;15.26;83.30
19096;BME280;9680;52.520;13.332;2023-08-31T04:13:05;100394.31;;;15.25;83.67
19096;BME280;9680;52.520;13.332;2023-08-31T04:15:32;100401.25;;;15.26;83.83
19096;BME280;9680;52.520;13.332;2023-08-31T04:18:01;100400.41;;;15.26;84.39
19096;BME280;9680;52.520;13.332;2023-08-31T04:20:28;100407.53;;;15.24;84.26
19096;BME280;9680;52.520;13.332;2023-08-31T04:22:54;100406.84;;;15.20;84.81
19096;BME280;9680;52.520;13.332;2023-08-31T04:25:21;100404.03;;;15.23;85.16
19096;BME280;9680;52.520;13.332;2023-08-31T04:27:48;100403.88;;;15.26;85.00
19096;BME280;9680;52.520;13.332;2023-08-31T04:30:14;100403.56;;;15.31;85.16
19096;BME280;9680;52.520;13.332;2023-08-31T04:32:41;100405.25;;;15.32;85.32
19096;BME280;9680;52.520;13.332;2023-08-31T04:35:09;100409.56;;;15.33;85.16
19096;BME280;9680;52.520;13.332;2023-08-31T04:37:36;100409.38;;;15.36;85.56
19096;BME280;9680;52.520;13.332;2023-08-31T04:40:04;100412.00;;;15.36;85.74
19096;BME280;9680;52.520;13.332;2023-08-31T04:42:31;100409.56;;;15.33;85.51
19096;BME280;9680;52.520;13.332;2023-08-31T04:44:57;100412.38;;;15.30;85.95
19096;BME280;9680;52.520;13.332;2023-08-31T04:47:24;100421.19;;;15.29;86.23
19096;BME280;9680;52.520;13.332;2023-08-31T04:49:51;100417.00;;;15.26;87.16
19096;BME280;9680;52.520;13.332;2023-08-31T04:52:19;100418.97;;;15.23;86.84
19096;BME280;9680;52.520;13.332;2023-08-31T04:54:45;100421.59;;;15.23;87.10
19096;BME280;9680;52.520;13.332;2023-08-31T04:57:12;100424.13;;;15.24;87.39
19096;BME280;9680;52.520;13.332;2023-08-31T04:59:39;100423.00;;;15.28;87.07
19096;BME280;9680;52.520;13.332;2023-08-31T05:02:05;100417.94;;;15.25;87.10
19096;BME280;9680;52.520;13.332;2023-08-31T05:04:32;100424.75;;;15.28;87.43
19096;BME280;9680;52.520;13.332;2023-08-31T05:06:59;100415.75;;;15.32;87.33
19096;BME280;9680;52.520;13.332;2023-08-31T05:09:27;100423.22;;;15.38;87.18
19096;BME280;9680;52.520;13.332;2023-08-31T05:11:57;100423.69;;;15.45;87.33
19096;BME280;9680;52.520;13.332;2023-08-31T05:14:24;100416.25;;;15.52;87.05
19096;BME280;9680;52.520;13.332;2023-08-31T05:16:51;100428.91;;;15.60;86.73
19096;BME280;9680;52.520;13.332;2023-08-31T05:19:18;100427.88;;;15.62;86.64
19096;BME280;9680;52.520;13.332;2023-08-31T05:21:45;100429.16;;;15.69;86.53
19096;BME280;9680;52.520;13.332;2023-08-31T05:24:11;100433.16;;;15.75;86.09
19096;BME280;9680;52.520;13.332;2023-08-31T05:26:40;100426.97;;;15.76;85.74
19096;BME280;9680;52.520;13.332;2023-08-31T05:29:06;100426.03;;;15.77;85.66
19096;BME280;9680;52.520;13.332;2023-08-31T05:31:33;100432.22;;;15.76;85.37
19096;BME280;9680;52.520;13.332;2023-08-31T05:34:00;100432.22;;;15.76;85.23
19096;BME280;9680;52.520;13.332;2023-08-31T05:36:27;100448.72;;;15.78;85.28
19096;BME280;9680;52.520;13.332;2023-08-31T05:38:53;100453.78;;;15.81;85.03
19096;BME280;9680;52.520;13.332;2023-08-31T05:41:20;100451.78;;;15.85;84.72
19096;BME280;9680;52.520;13.332;2023-08-31T05:43:48;100451.78;;;15.85;84.74
19096;BME280;9680;52.520;13.332;2023-08-31T05:46:15;100459.75;;;15.83;84.53
19096;BME280;9680;52.520;13.332;2023-08-31T05:48:42;100461.66;;;15.81;84.27
19096;BME280;9680;52.520;13.332;2023-08-31T05:51:09;100465.75;;;15.85;84.71
19096;BME280;9680;52.520;13.332;2023-08-31T05:53:35;100460.50;;;15.85;84.54
19096;BME280;9680;52.520;13.332;2023-08-31T05:56:03;100468.13;;;15.90;84.04
19096;BME280;9680;52.520;13.332;2023-08-31T05:58:31;100468.69;;;15.95;84.29
19096;BME280;9680;52.520;13.332;2023-08-31T06:01:01;100470.28;;;15.98;83.64
19096;BME280;9680;52.520;13.332;2023-08-31T06:03:30;100471.63;;;16.04;83.97
19096;BME280;9680;52.520;13.332;2023-08-31T06:05:57;100469.25;;;16.13;83.69
19096;BME280;9680;52.520;13.332;2023-08-31T06:08:24;100469.47;;;16.23;83.63
19096;BME280;9680;52.520;13.332;2023-08-31T06:10:51;100473.06;;;16.22;83.01
19096;BME280;9680;52.520;13.332;2023-08-31T06:13:18;100480.31;;;16.19;82.52
19096;BME280;9680;52.520;13.332;2023-08-31T06:15:45;100476.94;;;16.16;82.55
19096;BME280;9680;52.520;13.332;2023-08-31T06:18:17;100478.50;;;16.19;83.01
19096;BME280;9680;52.520;13.332;2023-08-31T06:21:01;100486.56;;;16.30;82.94
19096;BME280;9680;52.520;13.332;2023-08-31T06:23:28;100497.72;;;16.47;82.46
19096;BME280;9680;52.520;13.332;2023-08-31T06:25:55;100489.22;;;16.56;81.91
19096;BME280;9680;52.520;13.332;2023-08-31T06:28:21;100492.69;;;16.57;81.63
19096;BME280;9680;52.520;13.332;2023-08-31T06:30:48;100501.94;;;16.63;81.26
19096;BME280;9680;52.520;13.332;2023-08-31T06:33:16;100495.44;;;16.68;80.89
19096;BME280;9680;52.520;13.332;2023-08-31T06:35:48;100499.22;;;16.77;80.62
19096;BME280;9680;52.520;13.332;2023-08-31T06:38:17;100497.31;;;16.79;80.45
19096;BME280;9680;52.520;13.332;2023-08-31T06:40:43;100495.66;;;16.91;79.92
19096;BME280;9680;52.520;13.332;2023-08-31T06:43:10;100498.94;;;17.08;79.36
19096;BME280;9680;52.520;13.332;2023-08-31T06:45:37;100497.56;;;17.15;78.44
19096;BME280;9680;52.520;13.332;2023-08-31T06:48:05;100500.69;;;17.33;78.00
19096;BME280;9680;52.520;13.332;2023-08-31T06:50:34;100500.38;;;17.38;77.15
19096;BME280;9680;52.520;13.332;2023-08-31T06:53:02;100501.78;;;17.30;77.10
19096;BME280;9680;52.520;13.332;2023-08-31T06:55:29;100501.34;;;17.24;76.77
19096;BME280;9680;52.520;13.332;2023-08-31T06:57:57;100511.25;;;17.20;76.95
19096;BME280;9680;52.520;13.332;2023-08-31T07:00:24;100513.78;;;17.22;76.80
19096;BME280;9680;52.520;13.332;2023-08-31T07:02:51;100519.56;;;17.27;76.65
19096;BME280;9680;52.520;13.332;2023-08-31T07:05:18;100522.50;;;17.35;76.45
19096;BME280;9680;52.520;13.332;2023-08-31T07:07:52;100517.97;;;17.37;75.57
19096;BME280;9680;52.520;13.332;2023-08-31T07:10:20;100517.44;;;17.32;75.17
19096;BME280;9680;52.520;13.332;2023-08-31T07:12:46;100515.66;;;17.32;75.27
19096;BME280;9680;52.520;13.332;2023-08-31T07:15:13;100519.88;;;17.35;75.34
19096;BME280;9680;52.520;13.332;2023-08-31T07:17:40;100516.50;;;17.33;74.59
19096;BME280;9680;52.520;13.332;2023-08-31T07:20:08;100519.13;;;17.33;75.01
19096;BME280;9680;52.520;13.332;2023-08-31T07:22:36;100523.00;;;17.40;74.78
19096;BME280;9680;52.520;13.332;2023-08-31T07:25:06;100535.22;;;17.41;74.44
19096;BME280;9680;52.520;13.332;2023-08-31T07:27:34;100530.41;;;17.22;72.59
19096;BME280;9680;52.520;13.332;2023-08-31T07:30:01;100528.09;;;17.05;73.56
19096;BME280;9680;52.520;13.332;2023-08-31T07:32:29;100546.94;;;17.11;74.23
19096;BME280;9680;52.520;13.332;2023-08-31T07:34:56;100540.53;;;17.15;73.70
19096;BME280;9680;52.520;13.332;2023-08-31T07:37:23;100548.81;;;17.22;73.26
19096;BME280;9680;52.520;13.332;2023-08-31T07:39:50;100548.09;;;17.07;72.59
19096;BME280;9680;52.520;13.332;2023-08-31T07:42:18;100553.06;;;16.99;72.79
19096;BME280;9680;52.520;13.332;2023-08-31T07:44:46;100555.47;;;17.02;73.31
19096;BME280;9680;52.520;13.332;2023-08-31T07:47:13;100558.41;;;16.97;72.70
19096;BME280;9680;52.520;13.332;2023-08-31T07:49:39;100559.25;;;16.98;73.32
19096;BME280;9680;52.520;13.332;2023-08-31T07:52:06;100566.75;;;17.04;73.55
19096;BME280;9680;52.520;13.332;2023-08-31T07:54:33;100568.41;;;17.05;73.67
19096;BME280;9680;52.520;13.332;2023-08-31T07:57:00;100573.06;;;17.14;73.50
19096;BME280;9680;52.520;13.332;2023-08-31T07:59:29;100575.91;;;17.11;73.24
19096;BME280;9680;52.520;13.332;2023-08-31T08:01:55;100574.41;;;17.20;72.63
19096;BME280;9680;52.520;13.332;2023-08-31T08:04:22;100590.84;;;17.37;71.85
19096;BME280;9680;52.520;13.332;2023-08-31T08:06:51;100584.31;;;17.42;70.92
19096;BME280;9680;52.520;13.332;2023-08-31T08:09:18;100587.78;;;17.43;70.76
19096;BME280;9680;52.520;13.332;2023-08-31T08:11:44;100588.09;;;17.64;70.43
19096;BME280;9680;52.520;13.332;2023-08-31T08:14:11;100586.63;;;17.97;69.71
19096;BME280;9680;52.520;13.332;2023-08-31T08:16:39;100591.91;;;18.10;68.29
19096;BME280;9680;52.520;13.332;2023-08-31T08:19:06;100593.13;;;18.17;68.33
19096;BME280;9680;52.520;13.332;2023-08-31T08:21:34;100596.28;;;18.47;67.79
19096;BME280;9680;52.520;13.332;2023-08-31T08:24:00;100583.75;;;18.62;66.38
19096;BME280;9680;52.520;13.332;2023-08-31T08:26:28;100582.25;;;18.82;66.18
19096;BME280;9680;52.520;13.332;2023-08-31T08:28:55;100587.88;;;19.13;65.61
19096;BME280;9680;52.520;13.332;2023-08-31T08:31:22;100586.94;;;19.37;64.43
19096;BME280;9680;52.520;13.332;2023-08-31T08:33:50;100583.31;;;19.38;64.00
19096;BME280;9680;52.520;13.332;2023-08-31T08:36:17;100585.13;;;19.49;62.76
19096;BME280;9680;52.520;13.332;2023-08-31T08:38:43;100577.69;;;19.54;61.56
19096;BME280;9680;52.520;13.332;2023-08-31T08:41:10;100581.53;;;19.39;59.95
19096;BME280;9680;52.520;13.332;2023-08-31T08:43:39;100582.63;;;18.89;60.67
19096;BME280;9680;52.520;13.332;2023-08-31T08:46:09;100579.31;;;18.62;61.97
19096;BME280;9680;52.520;13.332;2023-08-31T08:48:37;100586.88;;;18.31;61.93
19096;BME280;9680;52.520;13.332;2023-08-31T08:51:07;100591.81;;;17.99;62.55
19096;BME280;9680;52.520;13.332;2023-08-31T08:53:34;100589.03;;;17.63;63.31
19096;BME280;9680;52.520;13.332;2023-08-31T08:56:03;100598.31;;;17.43;63.95
19096;BME280;9680;52.520;13.332;2023-08-31T08:58:30;100586.28;;;17.52;64.69
19096;BME280;9680;52.520;13.332;2023-08-31T09:00:57;100584.59;;;17.76;64.31
19096;BME280;9680;52.520;13.332;2023-08-31T09:03:24;100582.34;;;17.83;64.07
19096;BME280;9680;52.520;13.332;2023-08-31T09:05:51;100584.00;;;17.97;63.80
19096;BME280;9680;52.520;13.332;2023-08-31T09:08:56;100587.13;;;18.40;64.05
19096;BME280;9680;52.520;13.332;2023-08-31T09:11:24;100580.31;;;18.73;61.89
19096;BME280;9680;52.520;13.332;2023-08-31T09:13:52;100582.81;;;18.99;61.84
19096;BME280;9680;52.520;13.332;2023-08-31T09:16:24;100586.69;;;19.29;61.57
19096;BME280;9680;52.520;13.332;2023-08-31T09:18:52;100578.75;;;19.40;60.26
19096;BME280;9680;52.520;13.332;2023-08-31T09:21:18;100580.69;;;19.38;58.15
19096;BME280;9680;52.520;13.332;2023-08-31T09:23:47;100584.97;;;19.05;57.95
19096;BME280;9680;52.520;13.332;2023-08-31T09:26:23;100597.81;;;18.74;59.02
19096;BME280;9680;52.520;13.332;2023-08-31T09:28:50;100599.00;;;18.45;60.42
19096;BME280;9680;52.520;13.332;2023-08-31T09:31:17;100601.66;;;18.21;61.17
19096;BME280;9680;52.520;13.332;2023-08-31T09:33:49;100598.66;;;18.01;62.26
19096;BME280;9680;52.520;13.332;2023-08-31T09:36:17;100602.44;;;17.97;62.67
19096;BME280;9680;52.520;13.332;2023-08-31T09:38:44;100595.09;;;18.27;62.75
19096;BME280;9680;52.520;13.332;2023-08-31T09:41:11;100585.03;;;18.56;61.54
19096;BME280;9680;52.520;13.332;2023-08-31T09:43:39;100587.13;;;19.00;61.28
19096;BME280;9680;52.520;13.332;2023-08-31T09:46:07;100573.03;;;19.58;59.91
19096;BME280;9680;52.520;13.332;2023-08-31T09:48:35;100570.66;;;20.10;58.15
19096;BME280;9680;52.520;13.332;2023-08-31T09:51:04;100566.72;;;20.37;56.31
19096;BME280;9680;52.520;13.332;2023-08-31T09:53:31;100568.59;;;20.46;56.14
19096;BME280;9680;52.520;13.332;2023-08-31T09:55:58;100557.25;;;20.34;53.03
19096;BME280;9680;52.520;13.332;2023-08-31T09:58:26;100558.78;;;20.37;53.23
19096;BME280;9680;52.520;13.332;2023-08-31T10:00:55;100554.94;;;20.62;53.19
19096;BME280;9680;52.520;13.332;2023-08-31T10:03:22;100553.66;;;20.89;52.60
19096;BME280;9680;52.520;13.332;2023-08-31T10:05:50;100557.63;;;20.84;52.44
19096;BME280;9680;52.520;13.332;2023-08-31T10:08:17;100568.69;;;20.56;51.50
19096;BME280;9680;52.520;13.332;2023-08-31T10:10:44;100563.28;;;20.58;51.86
19096;BME280;9680;52.520;13.332;2023-08-31T10:13:12;100563.78;;;20.73;51.39
19096;BME280;9680;52.520;13.332;2023-08-31T10:15:38;100561.06;;;20.95;51.41
19096;BME280;9680;52.520;13.332;2023-08-31T10:18:07;100566.19;;;21.18;51.23
19096;BME280;9680;52.520;13.332;2023-08-31T10:20:34;100565.88;;;21.12;50.06
19096;BME280;9680;52.520;13.332;2023-08-31T10:23:02;100569.81;;;20.96;50.31
19096;BME280;9680;52.520;13.332;2023-08-31T10:26:00;100579.47;;;20.64;50.49
19096;BME280;9680;52.520;13.332;2023-08-31T10:28:27;100588.78;;;20.15;51.19
19096;BME280;9680;52.520;13.332;2023-08-31T10:31:00;100614.09;;;19.62;54.25
19096;BME280;9680;52.520;13.332;2023-08-31T10:33:31;100616.53;;;19.06;55.68
19096;BME280;9680;52.520;13.332;2023-08-31T10:35:58;100618.09;;;18.49;57.87
19096;BME280;9680;52.520;13.332;2023-08-31T10:38:26;100613.50;;;18.15;59.75
19096;BME280;9680;52.520;13.332;2023-08-31T10:41:20;100615.84;;;17.94;61.50
19096;BME280;9680;52.520;13.332;2023-08-31T10:43:49;100617.97;;;17.89;61.93
19096;BME280;9680;52.520;13.332;2023-08-31T10:46:17;100624.09;;;17.89;62.99
19096;BME280;9680;52.520;13.332;2023-08-31T10:48:53;100614.78;;;17.97;62.63
19096;BME280;9680;52.520;13.332;2023-08-31T10:51:27;100612.84;;;18.12;62.77
19096;BME280;9680;52.520;13.332;2023-08-31T10:54:04;100622.41;;;18.26;62.83
19096;BME280;9680;52.520;13.332;2023-08-31T10:56:31;100615.88;;;18.31;63.23
19096;BME280;9680;52.520;13.332;2023-08-31T10:58:59;100615.69;;;18.46;63.37
19096;BME280;9680;52.520;13.332;2023-08-31T11:01:53;100616.25;;;18.62;63.19
19096;BME280;9680;52.520;13.332;2023-08-31T11:04:22;100616.53;;;18.82;62.81
19096;BME280;9680;52.520;13.332;2023-08-31T11:06:49;100613.06;;;19.06;62.50
19096;BME280;9680;52.520;13.332;2023-08-31T11:09:20;100613.81;;;19.31;62.16
19096;BME280;9680;52.520;13.332;2023-08-31T11:11:47;100597.28;;;19.63;61.61
19096;BME280;9680;52.520;13.332;2023-08-31T11:14:14;100604.72;;;19.92;62.25
19096;BME280;9680;52.520;13.332;2023-08-31T11:16:43;100602.25;;;20.23;62.12
19096;BME280;9680;52.520;13.332;2023-08-31T11:19:10;100595.88;;;20.58;61.25
19096;BME280;9680;52.520;13.332;2023-08-31T11:21:38;100593.41;;;20.99;60.12
19096;BME280;9680;52.520;13.332;2023-08-31T11:24:07;100589.22;;;21.28;59.02
19096;BME280;9680;52.520;13.332;2023-08-31T11:26:34;100598.50;;;21.43;56.92
19096;BME280;9680;52.520;13.332;2023-08-31T11:29:05;100584.66;;;20.87;54.71
19096;BME280;9680;52.520;13.332;2023-08-31T11:31:32;100588.69;;;20.49;56.56
19096;BME280;9680;52.520;13.332;2023-08-31T11:33:58;100586.50;;;20.21;57.32
19096;BME280;9680;52.520;13.332;2023-08-31T11:36:25;100593.88;;;19.84;58.59
19096;BME280;9680;52.520;13.332;2023-08-31T11:38:54;100592.34;;;19.47;60.80
19096;BME280;9680;52.520;13.332;2023-08-31T11:41:21;100585.25;;;19.25;61.30
19096;BME280;9680;52.520;13.332;2023-08-31T11:43:48;100579.47;;;19.08;62.24
19096;BME280;9680;52.520;13.332;2023-08-31T11:46:15;100589.13;;;18.96;64.33
19096;BME280;9680;52.520;13.332;2023-08-31T11:48:42;100588.41;;;18.94;64.76
19096;BME280;9680;52.520;13.332;2023-08-31T11:51:10;100589.91;;;18.85;65.19
19096;BME280;9680;52.520;13.332;2023-08-31T11:53:37;100594.56;;;18.70;66.32
19096;BME280;9680;52.520;13.332;2023-08-31T11:56:05;100580.50;;;18.58;67.11
19096;BME280;9680;52.520;13.332;2023-08-31T11:58:32;100572.09;;;18.53;67.79
19096;BME280;9680;52.520;13.332;2023-08-31T12:01:00;100577.13;;;18.56;68.26
19096;BME280;9680;52.520;13.332;2023-08-31T12:03:27;100586.63;;;18.95;68.02
19096;BME280;9680;52.520;13.332;2023-08-31T12:05:54;100586.59;;;19.30;67.30
19096;BME280;9680;52.520;13.332;2023-08-31T12:08:26;100583.56;;;19.69;66.99
19096;BME280;9680;52.520;13.332;2023-08-31T12:10:53;100585.97;;;19.95;66.61
19096;BME280;9680;52.520;13.332;2023-08-31T12:13:25;100582.03;;;20.33;65.93
19096;BME280;9680;52.520;13.332;2023-08-31T12:15:52;100581.09;;;20.56;63.92
19096;BME280;9680;52.520;13.332;2023-08-31T12:18:19;100581.66;;;20.59;62.78
19096;BME280;9680;52.520;13.332;2023-08-31T12:20:47;100577.00;;;20.51;62.17
19096;BME280;9680;52.520;13.332;2023-08-31T12:23:16;100580.03;;;20.47;61.79
19096;BME280;9680;52.520;13.332;2023-08-31T12:25:46;100577.31;;;20.37;61.92
19096;BME280;9680;52.520;13.332;2023-08-31T12:28:13;100584.22;;;20.28;61.63
19096;BME280;9680;52.520;13.332;2023-08-31T12:30:43;100583.22;;;19.97;61.77
19096;BME280;9680;52.520;13.332;2023-08-31T12:33:12;100591.13;;;19.74;62.34
19096;BME280;9680;52.520;13.332;2023-08-31T12:35:39;100591.28;;;19.61;63.37
19096;BME280;9680;52.520;13.332;2023-08-31T12:38:06;100587.78;;;19.60;63.26
19096;BME280;9680;52.520;13.332;2023-08-31T12:40:33;100591.63;;;19.56;63.50
19096;BME280;9680;52.520;13.332;2023-08-31T12:42:59;100595.31;;;19.54;63.91
19096;BME280;9680;52.520;13.332;2023-08-31T12:45:26;100593.19;;;19.59;63.88
19096;BME280;9680;52.520;13.332;2023-08-31T12:47:54;100590.16;;;19.75;63.38
19096;BME280;9680;52.520;13.332;2023-08-31T12:50:21;100592.91;;;19.85;63.60
19096;BME280;9680;52.520;13.332;2023-08-31T12:52:47;100604.22;;;19.98;63.44
19096;BME280;9680;52.520;13.332;2023-08-31T12:55:14;100597.59;;;20.04;62.09